Time;durP1;ratioP1;P1;durP2;ratioP2;P2;SDS_P1;SDS_P2;PMS_P1;PMS_P2;Temp;Humidity;BMP_temperature;BMP_pressure;BME280_temperature;BME280_humidity;BME280_pressure;Samples;Min_cycle;Max_cycle;Signal;HPM_P1;HPM_P2
2023/12/18 00:00:11;;;;;;;;;;;;;;;11.09;48.78;102229.13;4991647;28;6926;-77
2023/12/18 00:02:37;;;;;;;;;;;;;;;11.08;48.83;102224.78;4971843;28;7289;-77
2023/12/18 00:05:02;;;;;;;;;;;;;;;11.09;48.46;102231.69;5006415;28;6796;-75
2023/12/18 00:07:28;;;;;;;;;;;;;;;11.08;48.44;102234.13;5004737;28;6916;-77
2023/12/18 00:09:53;;;;;;;;;;;;;;;11.06;48.68;102234.03;5005835;28;7098;-77
2023/12/18 00:12:19;;;;;;;;;;;;;;;11.04;48.38;102234.69;4974060;28;7054;-76
2023/12/18 00:14:44;;;;;;;;;;;;;;;11.01;48.26;102234.44;5007458;28;6776;-76
2023/12/18 00:17:10;;;;;;;;;;;;;;;10.96;47.84;102236.66;4990314;28;6966;-78
2023/12/18 00:19:35;;;;;;;;;;;;;;;10.90;48.23;102231.97;5006209;28;6796;-79
2023/12/18 00:22:01;;;;;;;;;;;;;;;10.86;47.94;102232.50;5005166;28;6818;-76
2023/12/18 00:24:26;;;;;;;;;;;;;;;10.80;47.97;102224.34;5007523;28;6938;-77
2023/12/18 00:26:52;;;;;;;;;;;;;;;10.76;47.80;102222.34;4987905;28;7087;-79
2023/12/18 00:29:17;;;;;;;;;;;;;;;10.73;47.86;102233.25;4989081;28;6784;-76
2023/12/18 00:31:42;;;;;;;;;;;;;;;10.70;47.70;102248.41;4990308;28;6960;-76
2023/12/18 00:34:08;;;;;;;;;;;;;;;10.66;47.66;102251.50;4989948;28;7042;-76
2023/12/18 00:36:33;;;;;;;;;;;;;;;10.64;47.49;102243.69;4988038;28;7085;-76
2023/12/18 00:38:59;;;;;;;;;;;;;;;10.61;47.75;102238.31;4988182;28;7376;-77
2023/12/18 00:41:25;;;;;;;;;;;;;;;10.61;47.70;102237.44;5003361;28;6821;-78
2023/12/18 00:43:50;;;;;;;;;;;;;;;10.59;47.70;102239.88;4991649;28;6768;-79
2023/12/18 00:46:15;;;;;;;;;;;;;;;10.59;47.25;102241.56;4968485;28;6962;-79
2023/12/18 00:48:41;;;;;;;;;;;;;;;10.55;47.51;102243.00;4985978;28;6788;-79
2023/12/18 00:51:11;;;;;;;;;;;;;;;10.51;47.31;102239.28;4983168;28;7889;-79
2023/12/18 00:53:36;;;;;;;;;;;;;;;10.49;47.49;102237.38;4969889;28;6868;-80
2023/12/18 00:56:02;;;;;;;;;;;;;;;10.47;47.53;102223.56;4982720;28;6776;-79
2023/12/18 00:58:27;;;;;;;;;;;;;;;10.45;47.32;102233.66;4982872;28;6971;-79
2023/12/18 01:00:53;;;;;;;;;;;;;;;10.40;47.89;102235.84;4983712;28;6798;-78
2023/12/18 01:03:18;;;;;;;;;;;;;;;10.38;47.43;102239.97;4966572;28;7038;-79
2023/12/18 01:05:43;;;;;;;;;;;;;;;10.33;47.64;102235.25;4968025;28;7408;-79
2023/12/18 01:08:09;;;;;;;;;;;;;;;10.29;47.36;102239.25;4984505;28;7861;-78
2023/12/18 01:10:34;;;;;;;;;;;;;;;10.24;47.59;102235.44;4984148;28;6839;-79
2023/12/18 01:13:00;;;;;;;;;;;;;;;10.22;47.81;102247.22;4969749;28;7015;-77
2023/12/18 01:15:25;;;;;;;;;;;;;;;10.17;48.08;102244.28;4968110;28;6958;-78
2023/12/18 01:17:51;;;;;;;;;;;;;;;10.11;47.77;102234.44;4962332;28;6990;-77
2023/12/18 01:20:16;;;;;;;;;;;;;;;10.06;47.69;102227.16;4984306;28;6851;-79
2023/12/18 01:22:42;;;;;;;;;;;;;;;10.03;48.10;102235.50;4972316;28;6977;-79
2023/12/18 01:25:07;;;;;;;;;;;;;;;10.00;48.11;102230.13;4985416;28;6875;-79
2023/12/18 01:27:33;;;;;;;;;;;;;;;9.98;48.40;102221.44;4982103;28;6804;-79
2023/12/18 01:29:58;;;;;;;;;;;;;;;9.97;48.59;102229.91;4980869;28;7003;-79
2023/12/18 01:32:24;;;;;;;;;;;;;;;9.96;48.10;102230.69;4965265;28;6943;-79
2023/12/18 01:34:49;;;;;;;;;;;;;;;9.90;48.45;102228.53;4965570;28;7194;-80
2023/12/18 01:37:15;;;;;;;;;;;;;;;9.85;48.09;102240.06;4966985;28;7171;-79
2023/12/18 01:39:40;;;;;;;;;;;;;;;9.79;48.40;102240.47;4985356;28;6783;-79
2023/12/18 01:42:06;;;;;;;;;;;;;;;9.76;49.15;102240.22;4982681;28;6772;-79
2023/12/18 01:44:31;;;;;;;;;;;;;;;9.72;48.60;102241.63;4966388;28;8085;-79
2023/12/18 01:46:57;;;;;;;;;;;;;;;9.71;49.11;102241.50;4984509;28;6776;-79
2023/12/18 01:49:23;;;;;;;;;;;;;;;9.66;48.73;102242.81;4985360;28;6772;-79
2023/12/18 01:51:50;;;;;;;;;;;;;;;9.63;49.53;102245.09;4966555;28;7037;-77
2023/12/18 01:54:19;;;;;;;;;;;;;;;9.59;49.16;102242.31;4966944;28;6831;-79
2023/12/18 01:56:46;;;;;;;;;;;;;;;9.54;49.33;102247.81;4984081;28;6804;-79
2023/12/18 01:59:12;;;;;;;;;;;;;;;9.50;49.58;102244.09;4983899;28;7030;-79
2023/12/18 02:01:37;;;;;;;;;;;;;;;9.46;49.75;102244.59;4950529;28;7193;-79
2023/12/18 02:04:03;;;;;;;;;;;;;;;9.45;49.36;102247.94;4981984;28;7335;-79
2023/12/18 02:06:28;;;;;;;;;;;;;;;9.42;49.86;102242.59;4982527;28;7199;-79
2023/12/18 02:08:56;;;;;;;;;;;;;;;9.39;49.29;102238.09;4982750;28;7193;-80
2023/12/18 02:11:22;;;;;;;;;;;;;;;9.35;50.15;102241.19;4966179;28;7426;-79
2023/12/18 02:13:48;;;;;;;;;;;;;;;9.31;50.23;102241.69;4965521;28;6796;-79
2023/12/18 02:16:14;;;;;;;;;;;;;;;9.28;50.14;102244.91;4968106;28;6792;-77
2023/12/18 02:18:44;;;;;;;;;;;;;;;9.24;50.53;102240.28;4961890;28;7264;-79
2023/12/18 02:21:09;;;;;;;;;;;;;;;9.22;49.88;102243.47;4981092;28;6887;-80
2023/12/18 02:23:35;;;;;;;;;;;;;;;9.16;50.58;102246.44;4952695;28;7108;-79
2023/12/18 02:26:00;;;;;;;;;;;;;;;9.13;50.31;102243.63;4982807;28;6977;-80
2023/12/18 02:28:26;;;;;;;;;;;;;;;9.10;50.02;102240.81;4963646;28;6955;-79
2023/12/18 02:30:51;;;;;;;;;;;;;;;9.07;50.75;102241.44;4983011;28;6997;-80
2023/12/18 02:33:17;;;;;;;;;;;;;;;9.03;50.54;102242.84;4967799;28;7193;-77
2023/12/18 02:35:43;;;;;;;;;;;;;;;9.00;50.72;102237.50;4982238;28;6824;-80
2023/12/18 02:38:08;;;;;;;;;;;;;;;8.98;51.03;102239.03;4980891;28;6796;-79
2023/12/18 02:40:35;;;;;;;;;;;;;;;8.97;51.23;102242.31;4966346;28;8040;-79
2023/12/18 02:43:01;;;;;;;;;;;;;;;8.94;51.53;102242.06;4968396;28;6799;-80
2023/12/18 02:45:26;;;;;;;;;;;;;;;8.92;50.93;102240.16;4966770;28;6979;-79
2023/12/18 02:47:52;;;;;;;;;;;;;;;8.88;51.24;102246.66;4980942;28;7217;-79
2023/12/18 02:50:17;;;;;;;;;;;;;;;8.84;51.32;102240.44;4967305;28;6779;-78
2023/12/18 02:52:43;;;;;;;;;;;;;;;8.81;51.61;102244.38;4980841;28;6780;-80
2023/12/18 02:55:11;;;;;;;;;;;;;;;8.77;51.39;102250.88;4968175;28;7248;-79
2023/12/18 02:57:37;;;;;;;;;;;;;;;8.73;52.68;102252.28;4979164;28;7008;-80
2023/12/18 03:00:03;;;;;;;;;;;;;;;8.69;51.75;102250.25;4967810;28;7126;-79
2023/12/18 03:02:28;;;;;;;;;;;;;;;8.65;51.73;102255.84;4948438;28;7306;-79
2023/12/18 03:04:54;;;;;;;;;;;;;;;8.61;52.04;102261.47;4974160;28;6975;-78
2023/12/18 03:07:19;;;;;;;;;;;;;;;8.57;51.59;102269.63;4997152;28;6945;-79
2023/12/18 03:09:45;;;;;;;;;;;;;;;8.55;52.23;102266.97;4983230;28;6792;-76
2023/12/18 03:12:10;;;;;;;;;;;;;;;8.52;52.92;102261.56;4993656;28;6976;-77
2023/12/18 03:14:36;;;;;;;;;;;;;;;8.51;52.36;102253.78;4979132;28;7235;-77
2023/12/18 03:17:02;;;;;;;;;;;;;;;8.48;52.55;102246.69;4993715;28;6968;-79
2023/12/18 03:19:27;;;;;;;;;;;;;;;8.47;53.08;102247.47;4993302;28;6942;-76
2023/12/18 03:21:53;;;;;;;;;;;;;;;8.47;53.34;102247.47;4981125;28;6796;-80
2023/12/18 03:24:20;;;;;;;;;;;;;;;8.44;53.02;102242.97;4984139;28;6974;-77
2023/12/18 03:26:45;;;;;;;;;;;;;;;8.41;53.11;102242.72;4980500;28;7009;-76
2023/12/18 03:29:11;;;;;;;;;;;;;;;8.37;53.79;102250.00;4982723;28;7140;-80
2023/12/18 03:31:36;;;;;;;;;;;;;;;8.34;53.40;102250.63;4965657;28;7194;-77
2023/12/18 03:34:02;;;;;;;;;;;;;;;8.28;53.03;102243.31;4983789;28;7078;-80
2023/12/18 03:36:27;;;;;;;;;;;;;;;8.25;52.84;102244.72;4981802;28;6979;-76
2023/12/18 03:38:53;;;;;;;;;;;;;;;8.22;53.30;102239.34;4981299;28;7024;-78
2023/12/18 03:41:18;;;;;;;;;;;;;;;8.18;53.66;102241.59;4994873;28;7177;-79
2023/12/18 03:43:43;;;;;;;;;;;;;;;8.14;53.80;102247.22;4982305;28;7190;-81
2023/12/18 03:46:09;;;;;;;;;;;;;;;8.09;53.98;102245.91;4994228;28;6938;-76
2023/12/18 03:48:34;;;;;;;;;;;;;;;8.05;54.19;102242.19;4994926;28;6808;-80
2023/12/18 03:51:00;;;;;;;;;;;;;;;8.04;54.20;102242.06;4999822;28;7340;-80
2023/12/18 03:53:26;;;;;;;;;;;;;;;8.00;54.11;102246.00;4979061;28;7325;-80
2023/12/18 03:55:51;;;;;;;;;;;;;;;7.97;54.31;102238.09;4997433;28;6796;-77
2023/12/18 03:58:17;;;;;;;;;;;;;;;7.95;54.11;102233.59;4962772;28;7224;-77
2023/12/18 04:00:42;;;;;;;;;;;;;;;7.94;54.13;102232.69;4979071;28;6983;-80
2023/12/18 04:03:08;;;;;;;;;;;;;;;7.94;54.71;102229.25;4978876;28;8754;-78
2023/12/18 04:05:33;;;;;;;;;;;;;;;7.94;54.73;102231.81;4997765;28;6784;-76
2023/12/18 04:07:59;;;;;;;;;;;;;;;7.92;54.85;102229.13;4982465;28;6796;-79
2023/12/18 04:10:25;;;;;;;;;;;;;;;7.91;54.64;102223.09;4975128;28;6964;-80
2023/12/18 04:12:51;;;;;;;;;;;;;;;7.91;54.97;102224.78;4998057;28;6962;-79
2023/12/18 04:15:17;;;;;;;;;;;;;;;7.91;54.63;102212.00;4994616;28;6872;-77
2023/12/18 04:17:42;;;;;;;;;;;;;;;7.91;54.77;102206.91;4978857;28;6964;-81
2023/12/18 04:20:08;;;;;;;;;;;;;;;7.91;55.25;102210.34;4994280;28;6807;-78
2023/12/18 04:22:33;;;;;;;;;;;;;;;7.89;54.70;102199.09;4979008;28;8409;-77
2023/12/18 04:24:59;;;;;;;;;;;;;;;7.92;54.95;102194.28;4978851;28;6988;-80
2023/12/18 04:27:24;;;;;;;;;;;;;;;7.95;55.85;102205.53;4962314;28;7294;-80
2023/12/18 04:29:50;;;;;;;;;;;;;;;7.96;55.47;102200.53;4980384;28;6979;-78
2023/12/18 04:32:16;;;;;;;;;;;;;;;7.99;54.98;102207.56;4979522;28;6965;-79
2023/12/18 04:34:44;;;;;;;;;;;;;;;7.99;55.30;102205.91;4997364;28;6788;-76
2023/12/18 04:37:10;;;;;;;;;;;;;;;7.99;54.77;102202.47;4977492;28;6981;-77
2023/12/18 04:39:36;;;;;;;;;;;;;;;7.98;55.03;102203.22;4995411;28;6783;-79
2023/12/18 04:42:01;;;;;;;;;;;;;;;7.95;55.39;102210.63;4973528;28;7198;-80
2023/12/18 04:44:28;;;;;;;;;;;;;;;7.92;55.73;102209.59;4992674;28;6964;-80
2023/12/18 04:46:53;;;;;;;;;;;;;;;7.89;55.77;102200.78;4986189;28;6978;-79
2023/12/18 04:49:19;;;;;;;;;;;;;;;7.87;55.72;102199.72;4980292;28;6960;-80
2023/12/18 04:51:44;;;;;;;;;;;;;;;7.85;55.18;102203.78;4979024;28;6800;-77
2023/12/18 04:54:10;;;;;;;;;;;;;;;7.84;55.79;102200.38;4998848;28;6922;-80
2023/12/18 04:56:35;;;;;;;;;;;;;;;7.81;55.56;102194.97;4986359;28;6970;-78
2023/12/18 04:59:01;;;;;;;;;;;;;;;7.81;56.26;102192.41;4996727;28;7211;-79
2023/12/18 05:01:26;;;;;;;;;;;;;;;7.79;55.74;102209.25;4975121;28;7212;-78
2023/12/18 05:03:52;;;;;;;;;;;;;;;7.76;55.27;102214.97;4954971;28;6926;-81
2023/12/18 05:06:22;;;;;;;;;;;;;;;7.75;55.01;102217.41;4976680;28;8029;-78
2023/12/18 05:08:48;;;;;;;;;;;;;;;7.73;55.39;102221.50;4972118;28;6784;-78
2023/12/18 05:11:17;;;;;;;;;;;;;;;7.70;55.36;102217.00;4976355;28;6860;-79
2023/12/18 05:13:42;;;;;;;;;;;;;;;7.69;55.76;102235.66;4958572;28;6982;-80
2023/12/18 05:16:08;;;;;;;;;;;;;;;7.68;55.08;102245.72;4975574;28;8527;-80
2023/12/18 05:18:33;;;;;;;;;;;;;;;7.66;55.39;102231.91;4950131;28;6784;-77
2023/12/18 05:20:59;;;;;;;;;;;;;;;7.68;56.48;102228.75;4969732;28;8463;-78
2023/12/18 05:23:25;;;;;;;;;;;;;;;7.67;55.56;102221.81;4944431;28;6993;-80
2023/12/18 05:25:50;;;;;;;;;;;;;;;7.68;56.59;102220.19;4967626;28;6949;-74
2023/12/18 05:28:16;;;;;;;;;;;;;;;7.68;56.68;102209.97;4962311;28;6864;-74
2023/12/18 05:30:41;;;;;;;;;;;;;;;7.68;56.60;102217.63;4963988;28;6977;-74
2023/12/18 05:33:08;;;;;;;;;;;;;;;7.68;56.23;102208.34;4959513;28;6832;-76
2023/12/18 05:35:33;;;;;;;;;;;;;;;7.68;55.89;102220.19;4963805;28;7224;-75
2023/12/18 05:37:59;;;;;;;;;;;;;;;7.67;56.41;102215.84;4963133;28;6943;-75
2023/12/18 05:40:24;;;;;;;;;;;;;;;7.63;56.44;102220.69;4963003;28;6776;-75
2023/12/18 05:42:50;;;;;;;;;;;;;;;7.62;56.23;102225.63;4962740;28;6838;-74
2023/12/18 05:45:16;;;;;;;;;;;;;;;7.57;56.31;102220.13;4963377;28;6935;-75
2023/12/18 05:47:41;;;;;;;;;;;;;;;7.53;56.20;102217.16;4962540;28;6768;-75
2023/12/18 05:50:07;;;;;;;;;;;;;;;7.49;55.61;102214.34;4937647;28;6963;-75
2023/12/18 05:52:33;;;;;;;;;;;;;;;7.44;56.00;102218.13;4942870;28;7217;-74
2023/12/18 05:54:58;;;;;;;;;;;;;;;7.42;56.06;102221.28;4962909;28;7205;-74
2023/12/18 05:57:24;;;;;;;;;;;;;;;7.37;56.18;102215.78;5019971;23;6958;-74
2023/12/18 05:59:49;;;;;;;;;;;;;;;7.33;55.80;102226.47;5010700;28;7665;-75
2023/12/18 06:02:15;;;;;;;;;;;;;;;7.31;56.03;102228.88;4977903;28;7107;-74
2023/12/18 06:04:43;;;;;;;;;;;;;;;7.26;56.24;102230.13;4999818;28;6953;-74
2023/12/18 06:07:09;;;;;;;;;;;;;;;7.23;56.41;102227.28;5002027;28;7375;-75
2023/12/18 06:09:35;;;;;;;;;;;;;;;7.20;56.12;102227.00;4988716;28;6990;-74
2023/12/18 06:12:00;;;;;;;;;;;;;;;7.15;56.84;102229.13;4994379;28;7841;-74
2023/12/18 06:14:25;;;;;;;;;;;;;;;7.13;56.42;102223.00;4997915;28;6901;-74
2023/12/18 06:16:51;;;;;;;;;;;;;;;7.09;56.85;102223.47;4995107;28;6965;-74
2023/12/18 06:19:16;;;;;;;;;;;;;;;7.05;56.93;102229.97;4995123;28;7006;-75
2023/12/18 06:21:42;;;;;;;;;;;;;;;7.01;56.20;102227.00;4987224;28;7015;-75
2023/12/18 06:24:08;;;;;;;;;;;;;;;6.97;55.96;102225.81;4999812;28;8421;-75
2023/12/18 06:26:33;;;;;;;;;;;;;;;6.92;56.69;102225.38;4997118;28;6787;-74
2023/12/18 06:28:59;;;;;;;;;;;;;;;6.87;56.25;102235.91;4997918;28;7812;-75
2023/12/18 06:31:24;;;;;;;;;;;;;;;6.83;56.72;102234.72;4996017;28;7616;-74
2023/12/18 06:33:50;;;;;;;;;;;;;;;6.79;56.41;102232.63;5008375;28;7029;-74
2023/12/18 06:36:19;;;;;;;;;;;;;;;6.76;56.37;102227.28;4995572;28;6972;-72
2023/12/18 06:38:48;;;;;;;;;;;;;;;6.72;57.20;102226.09;5008625;28;6816;-73
2023/12/18 06:41:13;;;;;;;;;;;;;;;6.66;56.61;102228.03;4997708;28;6804;-74
2023/12/18 06:43:39;;;;;;;;;;;;;;;6.63;57.07;102225.22;5010380;28;6963;-73
2023/12/18 06:46:05;;;;;;;;;;;;;;;6.58;57.16;102232.44;4998346;28;6997;-74
2023/12/18 06:48:32;;;;;;;;;;;;;;;6.55;56.53;102237.25;5000054;28;7316;-74
2023/12/18 06:50:57;;;;;;;;;;;;;;;6.51;57.22;102246.25;4989322;28;6843;-75
2023/12/18 06:53:23;;;;;;;;;;;;;;;6.51;56.79;102250.44;5020004;23;6868;-75
2023/12/18 06:55:48;;;;;;;;;;;;;;;6.51;57.65;102256.44;4999140;23;7264;-76
2023/12/18 06:58:14;;;;;;;;;;;;;;;6.52;57.29;102258.25;4971232;28;7158;-79
2023/12/18 07:00:40;;;;;;;;;;;;;;;6.56;57.38;102263.63;4977774;28;6856;-78
2023/12/18 07:03:06;;;;;;;;;;;;;;;6.63;57.77;102268.53;4969938;28;7082;-84
2023/12/18 07:05:32;;;;;;;;;;;;;;;6.71;58.31;102265.06;4966620;28;9058;-83
2023/12/18 07:07:58;;;;;;;;;;;;;;;6.82;58.56;102273.72;4981699;28;8522;-83
2023/12/18 07:10:23;;;;;;;;;;;;;;;6.93;59.01;102270.50;4981948;28;6792;-83
2023/12/18 07:12:49;;;;;;;;;;;;;;;7.05;58.36;102283.50;4956044;28;7894;-82
2023/12/18 07:15:15;;;;;;;;;;;;;;;7.18;59.54;102275.31;4974292;28;8430;-83
2023/12/18 07:17:40;;;;;;;;;;;;;;;7.30;59.28;102278.09;4981906;28;8909;-83
2023/12/18 07:20:08;;;;;;;;;;;;;;;7.43;59.12;102279.22;4968147;28;8542;-82
2023/12/18 07:22:34;;;;;;;;;;;;;;;7.54;58.55;102281.09;4981377;28;7252;-82
2023/12/18 07:25:00;;;;;;;;;;;;;;;7.66;59.45;102285.50;4970874;28;8737;-80
2023/12/18 07:27:25;;;;;;;;;;;;;;;7.77;59.30;102282.25;4961722;28;8818;-80
2023/12/18 07:29:51;;;;;;;;;;;;;;;7.87;59.76;102282.31;4970127;28;8298;-81
2023/12/18 07:32:16;;;;;;;;;;;;;;;7.97;58.58;102291.72;4976850;28;6792;-83
2023/12/18 07:34:42;;;;;;;;;;;;;;;8.04;58.59;102293.16;4962307;28;8506;-83
2023/12/18 07:37:08;;;;;;;;;;;;;;;8.09;58.20;102288.44;4980691;28;7045;-83
2023/12/18 07:39:33;;;;;;;;;;;;;;;8.11;57.85;102280.16;4962102;28;7306;-83
2023/12/18 07:41:59;;;;;;;;;;;;;;;8.12;58.29;102281.97;4968219;28;7477;-82
2023/12/18 07:44:24;;;;;;;;;;;;;;;8.12;58.31;102281.97;4969446;28;7247;-83
2023/12/18 07:46:52;;;;;;;;;;;;;;;8.13;58.10;102283.75;4983035;28;8448;-85
2023/12/18 07:49:18;;;;;;;;;;;;;;;8.16;57.96;102285.66;4970799;28;8477;-84
2023/12/18 07:51:44;;;;;;;;;;;;;;;8.22;58.70;102290.44;4977587;28;8602;-83
2023/12/18 07:54:09;;;;;;;;;;;;;;;8.25;57.14;102289.03;4974105;28;7013;-85
2023/12/18 07:56:35;;;;;;;;;;;;;;;8.29;57.58;102293.66;4966930;28;8533;-86
2023/12/18 07:59:01;;;;;;;;;;;;;;;8.34;57.46;102292.38;4971554;28;8734;-85
2023/12/18 08:01:26;;;;;;;;;;;;;;;8.38;57.81;102292.66;4954730;28;6973;-84
2023/12/18 08:03:52;;;;;;;;;;;;;;;8.39;57.13;102294.47;4982568;28;6791;-84
2023/12/18 08:06:18;;;;;;;;;;;;;;;8.39;57.50;102295.34;4965212;28;6763;-84
2023/12/18 08:08:44;;;;;;;;;;;;;;;8.39;57.46;102292.78;4966804;28;8504;-84
2023/12/18 08:11:10;;;;;;;;;;;;;;;8.39;57.16;102274.91;4966288;28;6768;-84
2023/12/18 08:13:38;;;;;;;;;;;;;;;8.40;56.53;102286.03;4955992;28;7385;-85
2023/12/18 08:16:07;;;;;;;;;;;;;;;8.41;56.58;102281.06;4955587;28;8579;-84
2023/12/18 08:18:36;;;;;;;;;;;;;;;8.41;57.39;102275.03;4965228;28;6800;-84
2023/12/18 08:21:01;;;;;;;;;;;;;;;8.41;57.58;102278.50;4966300;28;6953;-84
2023/12/18 08:23:27;;;;;;;;;;;;;;;8.46;57.55;102279.78;4947220;28;8383;-84
2023/12/18 08:25:53;;;;;;;;;;;;;;;8.47;57.47;102281.56;4985037;28;6930;-84
2023/12/18 08:28:20;;;;;;;;;;;;;;;8.47;56.77;102271.34;4971881;28;7282;-85
2023/12/18 08:30:45;;;;;;;;;;;;;;;8.45;57.32;102280.53;4964776;28;8642;-85
2023/12/18 08:33:12;;;;;;;;;;;;;;;8.46;57.13;102277.22;4932820;28;8847;-85
2023/12/18 08:35:37;;;;;;;;;;;;;;;8.46;57.52;102274.66;4953965;28;8597;-85
2023/12/18 08:38:06;;;;;;;;;;;;;;;8.45;57.51;102265.22;4970718;28;6788;-85
2023/12/18 08:40:31;;;;;;;;;;;;;;;8.47;56.36;102267.91;4954200;28;7252;-85
2023/12/18 08:42:57;;;;;;;;;;;;;;;8.48;57.38;102273.13;4969483;28;7441;-85
2023/12/18 08:45:22;;;;;;;;;;;;;;;8.47;57.00;102268.78;4954774;28;7319;-85
2023/12/18 08:47:48;;;;;;;;;;;;;;;8.47;56.58;102267.91;4936923;28;8488;-84
2023/12/18 08:50:14;;;;;;;;;;;;;;;8.46;57.44;102256.78;4953243;28;7286;-85
2023/12/18 08:52:39;;;;;;;;;;;;;;;8.46;56.56;102251.66;4953845;28;8461;-85
2023/12/18 08:55:08;;;;;;;;;;;;;;;8.47;56.75;102258.56;4948113;28;8453;-85
2023/12/18 08:57:33;;;;;;;;;;;;;;;8.52;56.74;102255.56;4952162;28;8454;-85
2023/12/18 08:59:59;;;;;;;;;;;;;;;8.52;57.56;102255.56;4943428;28;8456;-85
2023/12/18 09:02:24;;;;;;;;;;;;;;;8.54;57.05;102261.69;4946884;28;6942;-85
2023/12/18 09:04:51;;;;;;;;;;;;;;;8.55;56.86;102260.94;4951662;28;6800;-85
2023/12/18 09:07:20;;;;;;;;;;;;;;;8.55;57.02;102251.63;4938486;28;8496;-89
2023/12/18 09:09:45;;;;;;;;;;;;;;;8.57;57.38;102252.63;4933239;28;7079;-82
2023/12/18 09:12:11;;;;;;;;;;;;;;;8.57;57.55;102255.19;4931976;28;6942;-85
2023/12/18 09:14:36;;;;;;;;;;;;;;;8.56;57.59;102247.38;4959366;28;8617;-85
2023/12/18 09:17:03;;;;;;;;;;;;;;;8.56;57.79;102239.72;4935916;28;8647;-85
2023/12/18 09:19:29;;;;;;;;;;;;;;;8.59;57.08;102237.41;4951416;28;8509;-85
2023/12/18 09:21:59;;;;;;;;;;;;;;;8.59;57.86;102234.84;4959900;28;8457;-85
2023/12/18 09:24:25;;;;;;;;;;;;;;;8.60;57.65;102223.91;4943890;28;7178;-85
2023/12/18 09:26:51;;;;;;;;;;;;;;;8.60;57.79;102229.00;4942875;28;6957;-85
2023/12/18 09:29:17;;;;;;;;;;;;;;;8.61;57.53;102220.56;4952246;28;8467;-85
2023/12/18 09:31:43;;;;;;;;;;;;;;;8.63;58.18;102208.81;4975166;23;6805;-88
2023/12/18 09:34:09;;;;;;;;;;;;;;;8.66;57.14;102210.75;5001130;28;6823;-84
2023/12/18 09:36:36;;;;;;;;;;;;;;;8.67;58.01;102213.41;5005813;28;6915;-84
2023/12/18 09:39:02;;;;;;;;;;;;;;;8.70;57.72;102202.56;5020171;28;6807;-84
2023/12/18 09:41:27;;;;;;;;;;;;;;;8.76;58.23;102215.88;5006052;28;8473;-83
2023/12/18 09:43:54;;;;;;;;;;;;;;;8.80;57.83;102214.47;5004566;28;7014;-84
2023/12/18 09:46:24;;;;;;;;;;;;;;;8.87;58.06;102209.06;5024469;28;6812;-84
2023/12/18 09:48:51;;;;;;;;;;;;;;;8.95;57.71;102207.19;5012339;28;8420;-84
2023/12/18 09:51:20;;;;;;;;;;;;;;;9.03;57.69;102216.41;5000380;28;7239;-83
2023/12/18 09:53:46;;;;;;;;;;;;;;;9.09;58.49;102213.44;5016473;28;6819;-84
2023/12/18 09:56:12;;;;;;;;;;;;;;;9.12;57.84;102204.34;5004172;28;8438;-84
2023/12/18 09:58:40;;;;;;;;;;;;;;;9.15;57.77;102201.16;4997784;28;6851;-84
2023/12/18 10:01:07;;;;;;;;;;;;;;;9.18;57.47;102198.88;5003339;28;8345;-84
2023/12/18 10:03:32;;;;;;;;;;;;;;;9.21;58.29;102193.09;5039228;28;6994;-84
2023/12/18 10:05:57;;;;;;;;;;;;;;;9.23;58.21;102195.00;5009498;28;7153;-85
2023/12/18 10:08:23;;;;;;;;;;;;;;;9.26;57.60;102187.56;5011512;28;8433;-84
2023/12/18 10:10:48;;;;;;;;;;;;;;;9.31;58.03;102204.22;5015221;28;7228;-84
2023/12/18 10:13:14;;;;;;;;;;;;;;;9.37;58.11;102214.06;5003310;28;8838;-84
2023/12/18 10:15:43;;;;;;;;;;;;;;;9.43;58.20;102199.22;5024173;28;7013;-84
2023/12/18 10:18:09;;;;;;;;;;;;;;;9.53;57.48;102200.84;4998596;28;8493;-86
2023/12/18 10:20:36;;;;;;;;;;;;;;;9.64;57.53;102205.94;5024804;28;6792;-85
2023/12/18 10:23:05;;;;;;;;;;;;;;;9.69;57.80;102192.72;5019365;28;8356;-86
2023/12/18 10:25:31;;;;;;;;;;;;;;;9.74;57.67;102205.91;5019010;28;8425;-84
2023/12/18 10:27:57;;;;;;;;;;;;;;;9.78;57.37;102194.22;5027517;28;6788;-84
2023/12/18 10:30:28;;;;;;;;;;;;;;;9.81;57.51;102189.38;5044774;28;6824;-86
2023/12/18 10:32:54;;;;;;;;;;;;;;;9.81;56.98;102187.69;5007652;28;7614;-88
2023/12/18 10:35:21;;;;;;;;;;;;;;;9.85;57.47;102183.72;5014406;28;8281;-89
2023/12/18 10:37:49;;;;;;;;;;;;;;;9.88;57.08;102188.19;4993045;28;7236;-88
2023/12/18 10:40:18;;;;;;;;;;;;;;;9.85;57.12;102193.97;4988282;28;7417;-90
2023/12/18 10:42:51;;;;;;;;;;;;;;;9.85;56.94;102184.63;4991277;28;8424;-88
2023/12/18 10:45:18;;;;;;;;;;;;;;;9.86;56.91;102186.41;4992027;28;8400;-88
2023/12/18 10:47:46;;;;;;;;;;;;;;;9.89;56.45;102185.72;5007635;28;8443;-87
2023/12/18 10:50:16;;;;;;;;;;;;;;;9.91;57.15;102185.88;4985592;28;8486;-89
2023/12/18 10:52:46;;;;;;;;;;;;;;;9.91;56.26;102183.31;4993664;28;7162;-88
2023/12/18 10:55:14;;;;;;;;;;;;;;;9.95;57.04;102193.03;5008525;28;8441;-88
2023/12/18 10:57:42;;;;;;;;;;;;;;;9.92;57.18;102190.22;4984185;28;7327;-88
2023/12/18 11:00:09;;;;;;;;;;;;;;;9.95;56.39;102175.09;4984603;28;7011;-87
2023/12/18 11:02:36;;;;;;;;;;;;;;;9.94;56.83;102187.00;4991802;28;7142;-88
2023/12/18 11:05:02;;;;;;;;;;;;;;;9.92;56.36;102183.44;4990822;28;8616;-87
2023/12/18 11:07:30;;;;;;;;;;;;;;;9.92;56.53;102192.78;4993004;28;8397;-88
2023/12/18 11:09:56;;;;;;;;;;;;;;;9.92;56.57;102185.09;5008217;28;6803;-88
2023/12/18 11:12:25;;;;;;;;;;;;;;;9.92;56.22;102177.41;4992679;28;8635;-87
2023/12/18 11:15:03;;;;;;;;;;;;;;;9.95;56.19;102177.66;5006897;28;7209;-87
2023/12/18 11:17:34;;;;;;;;;;;;;;;9.98;56.72;102172.78;4998686;28;7008;-88
2023/12/18 11:20:07;;;;;;;;;;;;;;;9.96;56.04;102175.22;4999877;28;8793;-88
2023/12/18 11:23:00;;;;;;;;;;;;;;;9.97;55.88;102171.00;4993058;28;8519;-87
2023/12/18 11:25:47;;;;;;;;;;;;;;;9.94;55.65;102157.91;4988725;28;7155;-88
2023/12/18 11:28:13;;;;;;;;;;;;;;;9.90;56.42;102158.47;4992924;28;7405;-84
2023/12/18 11:30:43;;;;;;;;;;;;;;;9.89;56.61;102159.25;4990400;28;8412;-86
2023/12/18 11:33:11;;;;;;;;;;;;;;;9.90;56.10;102155.91;4985775;23;7071;-85
2023/12/18 11:35:38;;;;;;;;;;;;;;;9.88;56.17;102149.78;4914499;29;7046;-83
2023/12/18 11:38:09;;;;;;;;;;;;;;;9.87;56.30;102146.31;4916024;29;6999;-83
2023/12/18 11:40:36;;;;;;;;;;;;;;;9.85;55.71;102147.84;4910939;29;6800;-83
2023/12/18 11:43:04;;;;;;;;;;;;;;;9.82;56.64;102133.13;4912356;29;6796;-85
2023/12/18 11:45:30;;;;;;;;;;;;;;;9.81;56.10;102131.34;4905523;29;8624;-84
2023/12/18 11:47:57;;;;;;;;;;;;;;;9.82;56.16;102129.69;4917565;29;7223;-83
2023/12/18 11:50:28;;;;;;;;;;;;;;;9.82;56.14;102127.13;4915143;29;6885;-86
2023/12/18 11:52:56;;;;;;;;;;;;;;;9.81;56.61;102123.66;4915950;29;6895;-83
2023/12/18 11:55:39;;;;;;;;;;;;;;;9.83;55.89;102123.81;4899548;29;8435;-82
2023/12/18 11:58:07;;;;;;;;;;;;;;;9.82;55.95;102125.47;4914849;29;7003;-84
2023/12/18 12:00:33;;;;;;;;;;;;;;;9.89;55.99;102128.50;4912839;29;8484;-84
2023/12/18 12:03:00;;;;;;;;;;;;;;;9.92;56.27;102114.28;4908685;29;7284;-83
2023/12/18 12:05:26;;;;;;;;;;;;;;;9.97;56.64;102114.63;4900379;29;7280;-85
2023/12/18 12:07:53;;;;;;;;;;;;;;;10.01;56.59;102119.22;4899191;29;7197;-85
2023/12/18 12:10:19;;;;;;;;;;;;;;;10.04;55.92;102122.00;4918035;29;6974;-83
2023/12/18 12:12:44;;;;;;;;;;;;;;;10.06;56.09;102111.88;4909500;29;6978;-82
2023/12/18 12:15:10;;;;;;;;;;;;;;;10.06;56.34;102117.91;4909945;29;8867;-81
2023/12/18 12:17:37;;;;;;;;;;;;;;;10.09;56.19;102107.91;4908245;29;7871;-81
2023/12/18 12:20:08;;;;;;;;;;;;;;;10.09;56.26;102097.66;4909752;29;6808;-80
2023/12/18 12:22:37;;;;;;;;;;;;;;;10.11;55.66;102090.97;4908521;29;6995;-81
2023/12/18 12:25:02;;;;;;;;;;;;;;;10.11;56.47;102090.09;4895203;29;7141;-81
2023/12/18 12:27:29;;;;;;;;;;;;;;;10.12;55.82;102087.63;4910890;29;6799;-81
2023/12/18 12:29:55;;;;;;;;;;;;;;;10.10;55.95;102096.88;4909298;29;6976;-81
2023/12/18 12:32:20;;;;;;;;;;;;;;;10.12;56.19;102102.13;4908004;29;7946;-81
2023/12/18 12:34:46;;;;;;;;;;;;;;;10.15;56.47;102104.91;4903527;29;7818;-81
2023/12/18 12:37:12;;;;;;;;;;;;;;;10.16;55.94;102095.56;4892732;29;7130;-81
2023/12/18 12:39:38;;;;;;;;;;;;;;;10.17;55.71;102097.34;4892114;29;7152;-81
2023/12/18 12:42:04;;;;;;;;;;;;;;;10.18;55.82;102091.44;4909129;29;7256;-81
2023/12/18 12:44:29;;;;;;;;;;;;;;;10.18;55.24;102096.56;4909577;29;6882;-81
2023/12/18 12:46:54;;;;;;;;;;;;;;;10.12;55.63;102086.75;4901064;29;8512;-80
2023/12/18 12:49:20;;;;;;;;;;;;;;;10.07;55.58;102091.53;4905185;29;6852;-82